sensor_id;sensor_type;location;lat;lon;timestamp;pressure;altitude;pressure_sealevel;temperature;humidity
30614;BME280;17381;51.690;5.270;2023-02-10T00:00:29;103565.03;;;0.92;79.21
30614;BME280;17381;51.690;5.270;2023-02-10T00:03:04;103571.19;;;0.94;79.59
30614;BME280;17381;51.690;5.270;2023-02-10T00:05:39;103581.44;;;0.93;79.47
30614;BME280;17381;51.690;5.270;2023-02-10T00:08:14;103540.09;;;0.64;79.30
30614;BME280;17381;51.690;5.270;2023-02-10T00:10:45;103584.75;;;0.90;79.60
30614;BME280;17381;51.690;5.270;2023-02-10T00:13:23;103584.56;;;0.87;79.36
30614;BME280;17381;51.690;5.270;2023-02-10T00:16:00;103582.78;;;0.86;79.67
30614;BME280;17381;51.690;5.270;2023-02-10T00:18:33;103586.16;;;0.85;79.63
30614;BME280;17381;51.690;5.270;2023-02-10T00:21:09;103583.50;;;0.83;79.82
30614;BME280;17381;51.690;5.270;2023-02-10T00:23:40;103576.88;;;0.74;79.70
30614;BME280;17381;51.690;5.270;2023-02-10T00:26:24;103536.19;;;0.41;79.72
30614;BME280;17381;51.690;5.270;2023-02-10T00:28:54;103580.78;;;0.67;79.95
30614;BME280;17381;51.690;5.270;2023-02-10T00:31:32;103587.25;;;0.74;80.14
30614;BME280;17381;51.690;5.270;2023-02-10T00:34:03;103575.44;;;0.64;80.02
30614;BME280;17381;51.690;5.270;2023-02-10T00:36:28;103587.06;;;0.71;80.09
30614;BME280;17381;51.690;5.270;2023-02-10T00:39:00;103586.06;;;0.69;80.01
30614;BME280;17381;51.690;5.270;2023-02-10T00:41:33;103595.63;;;0.70;79.99
30614;BME280;17381;51.690;5.270;2023-02-10T00:44:02;103570.19;;;0.62;80.37
30614;BME280;17381;51.690;5.270;2023-02-10T00:46:37;103532.69;;;0.41;80.15
30614;BME280;17381;51.690;5.270;2023-02-10T00:49:04;103586.06;;;0.69;80.12
30614;BME280;17381;51.690;5.270;2023-02-10T00:51:30;103586.97;;;0.69;80.66
30614;BME280;17381;51.690;5.270;2023-02-10T00:54:09;103592.25;;;0.71;80.39
30614;BME280;17381;51.690;5.270;2023-02-10T00:56:42;103588.66;;;0.69;80.47
30614;BME280;17381;51.690;5.270;2023-02-10T00:59:19;103602.66;;;0.72;80.57
30614;BME280;17381;51.690;5.270;2023-02-10T01:02:02;103603.47;;;0.71;80.75
30614;BME280;17381;51.690;5.270;2023-02-10T01:04:29;103602.59;;;0.71;80.65
30614;BME280;17381;51.690;5.270;2023-02-10T01:06:58;103552.59;;;0.42;80.71
30614;BME280;17381;51.690;5.270;2023-02-10T01:09:38;103601.72;;;0.70;80.91
30614;BME280;17381;51.690;5.270;2023-02-10T01:12:08;103590.91;;;0.62;80.81
30614;BME280;17381;51.690;5.270;2023-02-10T01:14:46;103598.84;;;0.65;81.01
30614;BME280;17381;51.690;5.270;2023-02-10T01:17:18;103600.44;;;0.63;80.73
30614;BME280;17381;51.690;5.270;2023-02-10T01:19:57;103608.81;;;0.59;80.96
30614;BME280;17381;51.690;5.270;2023-02-10T01:22:26;103601.69;;;0.55;80.77
30614;BME280;17381;51.690;5.270;2023-02-10T01:24:56;103617.38;;;0.58;80.95
30614;BME280;17381;51.690;5.270;2023-02-10T01:27:28;103623.38;;;0.57;80.79
30614;BME280;17381;51.690;5.270;2023-02-10T01:29:54;103614.50;;;0.54;80.94
30614;BME280;17381;51.690;5.270;2023-02-10T01:32:32;103622.97;;;0.51;81.09
30614;BME280;17381;51.690;5.270;2023-02-10T01:35:03;103604.78;;;0.50;81.14
30614;BME280;17381;51.690;5.270;2023-02-10T01:37:35;103613.97;;;0.45;80.94
30614;BME280;17381;51.690;5.270;2023-02-10T01:40:13;103601.91;;;0.45;81.20
30614;BME280;17381;51.690;5.270;2023-02-10T01:42:48;103591.41;;;0.42;81.07
30614;BME280;17381;51.690;5.270;2023-02-10T01:45:28;103601.81;;;0.43;81.29
30614;BME280;17381;51.690;5.270;2023-02-10T01:47:55;103599.94;;;0.41;81.16
30614;BME280;17381;51.690;5.270;2023-02-10T01:50:39;103585.94;;;0.37;81.30
30614;BME280;17381;51.690;5.270;2023-02-10T01:53:14;103595.56;;;0.40;81.69
30614;BME280;17381;51.690;5.270;2023-02-10T01:55:54;103600.94;;;0.43;81.67
30614;BME280;17381;51.690;5.270;2023-02-10T01:58:31;103534.13;;;0.08;81.59
30614;BME280;17381;51.690;5.270;2023-02-10T02:01:04;103593.16;;;0.43;81.63
30614;BME280;17381;51.690;5.270;2023-02-10T02:03:45;103585.81;;;0.36;81.60
30614;BME280;17381;51.690;5.270;2023-02-10T02:06:18;103593.59;;;0.36;81.75
30614;BME280;17381;51.690;5.270;2023-02-10T02:08:44;103586.63;;;0.35;81.52
30614;BME280;17381;51.690;5.270;2023-02-10T02:12:10;103597.69;;;0.32;81.71
30614;BME280;17381;51.690;5.270;2023-02-10T02:14:40;103604.97;;;0.25;81.61
30614;BME280;17381;51.690;5.270;2023-02-10T02:17:22;103612.56;;;0.21;81.70
30614;BME280;17381;51.690;5.270;2023-02-10T02:20:07;103620.13;;;0.18;81.67
30614;BME280;17381;51.690;5.270;2023-02-10T02:32:24;103591.75;;;-0.08;81.76
30614;BME280;17381;51.690;5.270;2023-02-10T02:35:12;103627.31;;;0.09;81.50
30614;BME280;17381;51.690;5.270;2023-02-10T02:37:46;103618.56;;;0.07;81.76
30614;BME280;17381;51.690;5.270;2023-02-10T02:40:20;103608.66;;;0.00;81.79
30614;BME280;17381;51.690;5.270;2023-02-10T02:42:52;103610.59;;;0.04;81.81
30614;BME280;17381;51.690;5.270;2023-02-10T02:45:46;103605.63;;;0.07;81.72
30614;BME280;17381;51.690;5.270;2023-02-10T02:54:19;103608.66;;;0.00;81.94
30614;BME280;17381;51.690;5.270;2023-02-10T03:00:08;103604.47;;;-0.11;82.02
30614;BME280;17381;51.690;5.270;2023-02-10T03:02:41;103590.00;;;-0.23;82.08
30614;BME280;17381;51.690;5.270;2023-02-10T03:05:28;103622.97;;;-0.05;82.11
30614;BME280;17381;51.690;5.270;2023-02-10T03:08:03;103637.69;;;-0.04;82.04
30614;BME280;17381;51.690;5.270;2023-02-10T03:10:36;103607.47;;;-0.18;82.35
30614;BME280;17381;51.690;5.270;2023-02-10T03:13:09;103624.28;;;-0.12;82.10
30614;BME280;17381;51.690;5.270;2023-02-10T03:15:49;103629.91;;;-0.04;82.24
30614;BME280;17381;51.690;5.270;2023-02-10T03:18:22;103622.69;;;-0.10;82.40
30614;BME280;17381;51.690;5.270;2023-02-10T03:21:09;103637.88;;;-0.01;82.23
30614;BME280;17381;51.690;5.270;2023-02-10T03:23:54;103622.56;;;-0.11;82.15
30614;BME280;17381;51.690;5.270;2023-02-10T03:26:33;103636.09;;;-0.02;82.25
30614;BME280;17381;51.690;5.270;2023-02-10T03:29:11;103620.97;;;-0.09;82.54
30614;BME280;17381;51.690;5.270;2023-02-10T03:31:50;103637.69;;;-0.04;82.25
30614;BME280;17381;51.690;5.270;2023-02-10T03:34:31;103564.41;;;-0.46;82.20
30614;BME280;17381;51.690;5.270;2023-02-10T03:36:57;103635.59;;;-0.10;82.18
30614;BME280;17381;51.690;5.270;2023-02-10T03:39:40;103632.31;;;-0.07;82.33
30614;BME280;17381;51.690;5.270;2023-02-10T03:42:17;103626.03;;;-0.11;82.54
30614;BME280;17381;51.690;5.270;2023-02-10T03:45:01;103621.50;;;-0.15;82.50
30614;BME280;17381;51.690;5.270;2023-02-10T03:47:37;103636.50;;;-0.09;82.88
30614;BME280;17381;51.690;5.270;2023-02-10T03:50:09;103646.13;;;-0.07;82.62
30614;BME280;17381;51.690;5.270;2023-02-10T03:52:37;103639.25;;;-0.06;82.44
30614;BME280;17381;51.690;5.270;2023-02-10T03:55:09;103639.59;;;-0.15;82.45
30614;BME280;17381;51.690;5.270;2023-02-10T03:57:41;103585.84;;;-0.47;82.75
30614;BME280;17381;51.690;5.270;2023-02-10T04:00:21;103628.94;;;-0.19;82.76
30614;BME280;17381;51.690;5.270;2023-02-10T04:03:11;103639.41;;;-0.18;82.65
30614;BME280;17381;51.690;5.270;2023-02-10T04:05:43;103621.78;;;-0.24;82.79
30614;BME280;17381;51.690;5.270;2023-02-10T04:08:32;103551.28;;;-0.76;82.42
30614;BME280;17381;51.690;5.270;2023-02-10T04:11:04;103645.75;;;-0.26;82.34
30614;BME280;17381;51.690;5.270;2023-02-10T04:14:03;103643.84;;;-0.29;82.83
30614;BME280;17381;51.690;5.270;2023-02-10T04:16:29;103636.59;;;-0.34;82.71
30614;BME280;17381;51.690;5.270;2023-02-10T04:19:07;103615.56;;;-0.54;82.43
30614;BME280;17381;51.690;5.270;2023-02-10T04:21:35;103654.00;;;-0.32;82.74
30614;BME280;17381;51.690;5.270;2023-02-10T04:24:06;103640.06;;;-0.34;83.10
30614;BME280;17381;51.690;5.270;2023-02-10T04:26:34;103642.66;;;-0.34;82.76
30614;BME280;17381;51.690;5.270;2023-02-10T04:29:16;103641.88;;;-0.33;83.04
30614;BME280;17381;51.690;5.270;2023-02-10T04:31:55;103630.88;;;-0.43;82.76
30614;BME280;17381;51.690;5.270;2023-02-10T04:34:30;103634.53;;;-0.40;83.02
30614;BME280;17381;51.690;5.270;2023-02-10T04:37:02;103641.88;;;-0.33;82.69
30614;BME280;17381;51.690;5.270;2023-02-10T04:39:34;103648.81;;;-0.32;83.12
30614;BME280;17381;51.690;5.270;2023-02-10T04:42:04;103648.81;;;-0.32;82.77
30614;BME280;17381;51.690;5.270;2023-02-10T04:44:33;103644.47;;;-0.33;82.98
30614;BME280;17381;51.690;5.270;2023-02-10T04:47:08;103648.63;;;-0.35;82.97
30614;BME280;17381;51.690;5.270;2023-02-10T04:49:37;103652.09;;;-0.34;83.26
30614;BME280;17381;51.690;5.270;2023-02-10T04:52:11;103649.22;;;-0.39;83.20
30614;BME280;17381;51.690;5.270;2023-02-10T04:54:49;103645.66;;;-0.41;82.88
30614;BME280;17381;51.690;5.270;2023-02-10T04:57:27;103653.31;;;-0.42;83.12
30614;BME280;17381;51.690;5.270;2023-02-10T05:00:02;103655.78;;;-0.44;83.15
30614;BME280;17381;51.690;5.270;2023-02-10T05:02:32;103648.66;;;-0.48;82.96
30614;BME280;17381;51.690;5.270;2023-02-10T05:05:14;103662.56;;;-0.46;82.88
30614;BME280;17381;51.690;5.270;2023-02-10T05:07:49;103634.16;;;-0.59;83.04
30614;BME280;17381;51.690;5.270;2023-02-10T05:10:26;103656.59;;;-0.45;82.94
30614;BME280;17381;51.690;5.270;2023-02-10T05:13:09;103645.88;;;-0.51;83.01
30614;BME280;17381;51.690;5.270;2023-02-10T05:15:43;103585.03;;;-0.86;82.98
30614;BME280;17381;51.690;5.270;2023-02-10T05:18:19;103649.53;;;-0.48;82.90
30614;BME280;17381;51.690;5.270;2023-02-10T05:21:20;103647.84;;;-0.47;83.02
30614;BME280;17381;51.690;5.270;2023-02-10T05:23:52;103578.09;;;-0.87;83.00
30614;BME280;17381;51.690;5.270;2023-02-10T05:26:39;103642.66;;;-0.47;83.50
30614;BME280;17381;51.690;5.270;2023-02-10T05:29:14;103645.38;;;-0.46;83.48
30614;BME280;17381;51.690;5.270;2023-02-10T05:31:50;103634.34;;;-0.43;83.35
30614;BME280;17381;51.690;5.270;2023-02-10T05:34:34;103636.22;;;-0.40;83.93
30614;BME280;17381;51.690;5.270;2023-02-10T05:37:11;103625.78;;;-0.42;84.03
30614;BME280;17381;51.690;5.270;2023-02-10T05:39:40;103658.19;;;-0.20;84.28
30614;BME280;17381;51.690;5.270;2023-02-10T05:42:17;103663.84;;;-0.13;84.87
30614;BME280;17381;51.690;5.270;2023-02-10T05:44:49;103653.88;;;-0.07;85.08
30614;BME280;17381;51.690;5.270;2023-02-10T05:47:21;103659.63;;;0.03;85.71
30614;BME280;17381;51.690;5.270;2023-02-10T05:49:49;103653.75;;;0.05;85.58
30614;BME280;17381;51.690;5.270;2023-02-10T05:52:21;103663.97;;;0.17;85.68
30614;BME280;17381;51.690;5.270;2023-02-10T05:55:00;103671.94;;;0.20;85.67
30614;BME280;17381;51.690;5.270;2023-02-10T05:57:40;103648.16;;;0.12;85.92
30614;BME280;17381;51.690;5.270;2023-02-10T06:00:20;103665.66;;;0.30;85.95
30614;BME280;17381;51.690;5.270;2023-02-10T06:02:55;103660.09;;;0.24;85.97
30614;BME280;17381;51.690;5.270;2023-02-10T06:05:28;103683.16;;;0.34;86.18
30614;BME280;17381;51.690;5.270;2023-02-10T06:08:06;103677.34;;;0.38;86.19
30614;BME280;17381;51.690;5.270;2023-02-10T06:10:34;103609.63;;;0.02;86.13
30614;BME280;17381;51.690;5.270;2023-02-10T06:13:08;103661.47;;;0.32;86.02
30614;BME280;17381;51.690;5.270;2023-02-10T06:15:42;103664.81;;;0.44;86.46
30614;BME280;17381;51.690;5.270;2023-02-10T06:18:22;103663.19;;;0.46;86.31
30614;BME280;17381;51.690;5.270;2023-02-10T06:20:54;103665.00;;;0.47;86.29
30614;BME280;17381;51.690;5.270;2023-02-10T06:23:28;103664.13;;;0.47;86.46
30614;BME280;17381;51.690;5.270;2023-02-10T06:26:02;103661.53;;;0.47;86.22
30614;BME280;17381;51.690;5.270;2023-02-10T06:28:31;103659.84;;;0.47;86.28
30614;BME280;17381;51.690;5.270;2023-02-10T06:31:00;103646.78;;;0.46;86.36
30614;BME280;17381;51.690;5.270;2023-02-10T06:33:31;103664.38;;;0.51;86.19
30614;BME280;17381;51.690;5.270;2023-02-10T06:36:04;103663.41;;;0.49;86.79
30614;BME280;17381;51.690;5.270;2023-02-10T06:38:39;103651.66;;;0.41;86.71
30614;BME280;17381;51.690;5.270;2023-02-10T06:41:16;103675.34;;;0.47;87.13
30614;BME280;17381;51.690;5.270;2023-02-10T06:43:45;103666.69;;;0.47;86.96
30614;BME280;17381;51.690;5.270;2023-02-10T06:46:17;103667.19;;;0.41;87.04
30614;BME280;17381;51.690;5.270;2023-02-10T06:49:01;103663.81;;;0.42;87.30
30614;BME280;17381;51.690;5.270;2023-02-10T06:51:45;103677.84;;;0.46;87.49
30614;BME280;17381;51.690;5.270;2023-02-10T06:54:29;103618.38;;;0.04;87.46
30614;BME280;17381;51.690;5.270;2023-02-10T06:57:07;103699.41;;;0.46;87.54
30614;BME280;17381;51.690;5.270;2023-02-10T06:59:53;103692.28;;;0.42;87.80
30614;BME280;17381;51.690;5.270;2023-02-10T07:02:46;103640.41;;;0.12;88.22
30614;BME280;17381;51.690;5.270;2023-02-10T07:05:19;103680.13;;;0.41;88.15
30614;BME280;17381;51.690;5.270;2023-02-10T07:08:01;103688.88;;;0.43;88.16
30614;BME280;17381;51.690;5.270;2023-02-10T07:10:59;103709.06;;;0.49;88.21
30614;BME280;17381;51.690;5.270;2023-02-10T07:13:43;103696.75;;;0.45;88.34
30614;BME280;17381;51.690;5.270;2023-02-10T07:16:13;103715.34;;;0.52;88.70
30614;BME280;17381;51.690;5.270;2023-02-10T07:18:48;103715.34;;;0.52;88.64
30614;BME280;17381;51.690;5.270;2023-02-10T07:21:18;103710.34;;;0.55;88.79
30614;BME280;17381;51.690;5.270;2023-02-10T07:23:50;103706.06;;;0.56;88.48
30614;BME280;17381;51.690;5.270;2023-02-10T07:26:20;103701.78;;;0.56;88.53
30614;BME280;17381;51.690;5.270;2023-02-10T07:29:08;103699.88;;;0.54;88.72
30614;BME280;17381;51.690;5.270;2023-02-10T07:31:46;103705.16;;;0.55;88.78
30614;BME280;17381;51.690;5.270;2023-02-10T07:34:22;103704.75;;;0.62;88.77
30614;BME280;17381;51.690;5.270;2023-02-10T07:37:14;103648.81;;;0.36;88.61
30614;BME280;17381;51.690;5.270;2023-02-10T07:39:46;103632.03;;;0.30;88.94
30614;BME280;17381;51.690;5.270;2023-02-10T07:42:17;103687.13;;;0.70;89.19
30614;BME280;17381;51.690;5.270;2023-02-10T07:45:10;103694.16;;;0.73;89.14
30614;BME280;17381;51.690;5.270;2023-02-10T07:47:39;103697.81;;;0.76;89.40
30614;BME280;17381;51.690;5.270;2023-02-10T07:50:37;103706.66;;;0.80;89.48
30614;BME280;17381;51.690;5.270;2023-02-10T07:53:23;103630.91;;;0.39;89.37
30614;BME280;17381;51.690;5.270;2023-02-10T07:55:57;103707.94;;;0.86;89.40
30614;BME280;17381;51.690;5.270;2023-02-10T07:58:36;103721.88;;;0.89;89.72
30614;BME280;17381;51.690;5.270;2023-02-10T08:01:14;103725.66;;;0.94;89.78
30614;BME280;17381;51.690;5.270;2023-02-10T08:03:49;103724.13;;;0.97;89.73
30614;BME280;17381;51.690;5.270;2023-02-10T08:06:22;103729.47;;;1.00;89.69
30614;BME280;17381;51.690;5.270;2023-02-10T08:08:49;103725.41;;;1.04;89.78
30614;BME280;17381;51.690;5.270;2023-02-10T08:11:24;103714.22;;;1.05;90.09
30614;BME280;17381;51.690;5.270;2023-02-10T08:13:55;103737.81;;;1.09;89.92
30614;BME280;17381;51.690;5.270;2023-02-10T08:16:26;103739.50;;;1.09;90.74
30614;BME280;17381;51.690;5.270;2023-02-10T08:18:55;103737.09;;;1.12;90.31
30614;BME280;17381;51.690;5.270;2023-02-10T08:21:24;103743.03;;;1.24;90.64
30614;BME280;17381;51.690;5.270;2023-02-10T08:24:20;103754.44;;;1.28;90.57
30614;BME280;17381;51.690;5.270;2023-02-10T08:26:54;103738.72;;;1.25;90.81
30614;BME280;17381;51.690;5.270;2023-02-10T08:29:29;103758.56;;;1.39;90.76
30614;BME280;17381;51.690;5.270;2023-02-10T08:32:01;103745.00;;;1.43;90.93
30614;BME280;17381;51.690;5.270;2023-02-10T08:34:33;103742.88;;;1.51;91.11
30614;BME280;17381;51.690;5.270;2023-02-10T08:37:08;103719.44;;;1.49;90.91
30614;BME280;17381;51.690;5.270;2023-02-10T08:39:42;103725.16;;;1.59;91.14
30614;BME280;17381;51.690;5.270;2023-02-10T08:42:24;103730.53;;;1.62;90.87
30614;BME280;17381;51.690;5.270;2023-02-10T08:45:08;103740.19;;;1.64;91.30
30614;BME280;17381;51.690;5.270;2023-02-10T08:47:40;103729.91;;;1.66;91.31
30614;BME280;17381;51.690;5.270;2023-02-10T08:50:32;103728.81;;;1.77;91.53
30614;BME280;17381;51.690;5.270;2023-02-10T08:53:06;103730.59;;;1.78;91.75
30614;BME280;17381;51.690;5.270;2023-02-10T08:55:36;103734.44;;;1.85;91.63
30614;BME280;17381;51.690;5.270;2023-02-10T08:58:25;103727.97;;;1.93;91.74
30614;BME280;17381;51.690;5.270;2023-02-10T09:00:56;103740.75;;;2.05;91.58
30614;BME280;17381;51.690;5.270;2023-02-10T09:03:31;103736.78;;;2.11;92.12
30614;BME280;17381;51.690;5.270;2023-02-10T09:06:00;103736.34;;;2.18;91.73
30614;BME280;17381;51.690;5.270;2023-02-10T09:08:29;103736.69;;;2.25;91.84
30614;BME280;17381;51.690;5.270;2023-02-10T09:11:00;103738.75;;;2.30;91.98
30614;BME280;17381;51.690;5.270;2023-02-10T09:13:32;103732.00;;;2.34;91.59
30614;BME280;17381;51.690;5.270;2023-02-10T09:16:01;103728.94;;;2.41;91.79
30614;BME280;17381;51.690;5.270;2023-02-10T09:18:41;103734.44;;;2.47;91.79
30614;BME280;17381;51.690;5.270;2023-02-10T09:21:17;103743.75;;;2.58;91.52
30614;BME280;17381;51.690;5.270;2023-02-10T09:23:47;103747.63;;;2.67;91.37
30614;BME280;17381;51.690;5.270;2023-02-10T09:26:19;103762.19;;;2.79;91.81
30614;BME280;17381;51.690;5.270;2023-02-10T09:28:47;103717.38;;;2.67;91.28
30614;BME280;17381;51.690;5.270;2023-02-10T09:31:17;103746.44;;;2.93;91.09
30614;BME280;17381;51.690;5.270;2023-02-10T09:33:45;103745.94;;;3.00;91.46
30614;BME280;17381;51.690;5.270;2023-02-10T09:36:23;103740.16;;;3.05;91.37
30614;BME280;17381;51.690;5.270;2023-02-10T09:38:48;103731.25;;;3.00;91.09
30614;BME280;17381;51.690;5.270;2023-02-10T09:55:32;103739.59;;;3.80;90.91
30614;BME280;17381;51.690;5.270;2023-02-10T10:01:20;103713.28;;;3.91;90.74
30614;BME280;17381;51.690;5.270;2023-02-10T10:03:58;103759.34;;;4.48;89.93
30614;BME280;17381;51.690;5.270;2023-02-10T10:11:52;103755.75;;;5.22;88.50
30614;BME280;17381;51.690;5.270;2023-02-10T10:27:10;103743.59;;;6.50;85.73
30614;BME280;17381;51.690;5.270;2023-02-10T10:30:04;103708.94;;;6.31;84.48
30614;BME280;17381;51.690;5.270;2023-02-10T10:32:58;103724.72;;;6.57;83.90
30614;BME280;17381;51.690;5.270;2023-02-10T10:35:42;103689.97;;;6.37;83.79
30614;BME280;17381;51.690;5.270;2023-02-10T10:38:33;103753.66;;;6.86;81.99
30614;BME280;17381;51.690;5.270;2023-02-10T10:41:06;103734.84;;;7.46;80.68
30614;BME280;17381;51.690;5.270;2023-02-10T10:43:54;103737.25;;;8.19;80.03
30614;BME280;17381;51.690;5.270;2023-02-10T10:46:33;103676.41;;;8.58;78.48
30614;BME280;17381;51.690;5.270;2023-02-10T10:49:12;103703.81;;;9.34;76.23
30614;BME280;17381;51.690;5.270;2023-02-10T10:51:47;103711.41;;;9.93;74.94
30614;BME280;17381;51.690;5.270;2023-02-10T10:54:34;103704.47;;;10.35;73.17
30614;BME280;17381;51.690;5.270;2023-02-10T10:57:26;103693.81;;;10.71;71.46
30614;BME280;17381;51.690;5.270;2023-02-10T11:00:48;103700.59;;;11.02;68.78
30614;BME280;17381;51.690;5.270;2023-02-10T11:03:50;103692.16;;;11.22;66.86
30614;BME280;17381;51.690;5.270;2023-02-10T11:06:31;103699.34;;;11.32;65.29
30614;BME280;17381;51.690;5.270;2023-02-10T11:09:40;103688.91;;;11.38;63.87
30614;BME280;17381;51.690;5.270;2023-02-10T11:12:36;103645.31;;;11.04;62.69
30614;BME280;17381;51.690;5.270;2023-02-10T11:15:44;103688.66;;;11.23;62.86
30614;BME280;17381;51.690;5.270;2023-02-10T11:18:25;103691.88;;;11.06;62.76
30614;BME280;17381;51.690;5.270;2023-02-10T11:21:10;103681.72;;;11.28;62.53
30614;BME280;17381;51.690;5.270;2023-02-10T11:24:13;103684.53;;;11.37;61.20
30614;BME280;17381;51.690;5.270;2023-02-10T11:27:17;103678.19;;;11.26;60.50
30614;BME280;17381;51.690;5.270;2023-02-10T11:33:03;103657.22;;;10.83;62.20
30614;BME280;17381;51.690;5.270;2023-02-10T11:35:38;103689.22;;;11.05;61.74
30614;BME280;17381;51.690;5.270;2023-02-10T11:38:19;103671.13;;;10.75;60.75
30614;BME280;17381;51.690;5.270;2023-02-10T11:41:10;103676.53;;;10.38;61.51
30614;BME280;17381;51.690;5.270;2023-02-10T11:43:46;103629.19;;;9.97;61.91
30614;BME280;17381;51.690;5.270;2023-02-10T11:46:39;103666.59;;;10.26;62.83
30614;BME280;17381;51.690;5.270;2023-02-10T11:49:28;103671.69;;;10.19;63.10
30614;BME280;17381;51.690;5.270;2023-02-10T11:52:23;103673.66;;;10.28;63.37
30614;BME280;17381;51.690;5.270;2023-02-10T11:55:19;103658.69;;;10.26;63.34
30614;BME280;17381;51.690;5.270;2023-02-10T12:01:57;103654.06;;;10.54;62.46
30614;BME280;17381;51.690;5.270;2023-02-10T12:08:37;103651.78;;;11.21;61.16
30614;BME280;17381;51.690;5.270;2023-02-10T12:15:20;103654.72;;;11.96;59.35
30614;BME280;17381;51.690;5.270;2023-02-10T12:18:37;103654.16;;;12.20;58.81
30614;BME280;17381;51.690;5.270;2023-02-10T12:21:51;103652.03;;;12.60;59.20
30614;BME280;17381;51.690;5.270;2023-02-10T12:25:20;103659.47;;;13.01;57.60
30614;BME280;17381;51.690;5.270;2023-02-10T12:28:28;103638.56;;;13.22;56.50
30614;BME280;17381;51.690;5.270;2023-02-10T12:35:30;103642.28;;;13.43;55.09
30614;BME280;17381;51.690;5.270;2023-02-10T12:42:00;103602.97;;;14.01;55.10
30614;BME280;17381;51.690;5.270;2023-02-10T12:45:00;103548.28;;;13.92;53.96
30614;BME280;17381;51.690;5.270;2023-02-10T12:48:05;103626.00;;;14.30;53.37
30614;BME280;17381;51.690;5.270;2023-02-10T12:54:53;103622.59;;;13.10;53.48
30614;BME280;17381;51.690;5.270;2023-02-10T12:58:22;103623.50;;;12.27;55.37
30614;BME280;17381;51.690;5.270;2023-02-10T13:01:35;103578.88;;;11.75;56.23
30614;BME280;17381;51.690;5.270;2023-02-10T13:04:42;103624.72;;;11.86;57.49
30614;BME280;17381;51.690;5.270;2023-02-10T13:07:42;103569.16;;;11.72;57.58
30614;BME280;17381;51.690;5.270;2023-02-10T13:10:54;103613.81;;;12.24;57.55
30614;BME280;17381;51.690;5.270;2023-02-10T13:13:31;103605.78;;;12.16;57.31
30614;BME280;17381;51.690;5.270;2023-02-10T13:16:39;103601.06;;;11.92;57.40
30614;BME280;17381;51.690;5.270;2023-02-10T13:20:06;103600.81;;;11.18;59.01
30614;BME280;17381;51.690;5.270;2023-02-10T13:29:38;103593.31;;;10.01;62.12
30614;BME280;17381;51.690;5.270;2023-02-10T13:32:45;103605.78;;;9.70;62.93
30614;BME280;17381;51.690;5.270;2023-02-10T13:35:30;103611.63;;;9.57;63.51
30614;BME280;17381;51.690;5.270;2023-02-10T13:38:26;103602.63;;;9.46;63.95
30614;BME280;17381;51.690;5.270;2023-02-10T13:41:30;103598.94;;;9.77;64.41
30614;BME280;17381;51.690;5.270;2023-02-10T13:44:55;103575.78;;;10.41;64.31
30614;BME280;17381;51.690;5.270;2023-02-10T13:48:06;103574.44;;;11.14;62.95
30614;BME280;17381;51.690;5.270;2023-02-10T13:51:02;103584.16;;;11.79;59.76
30614;BME280;17381;51.690;5.270;2023-02-10T13:57:20;103581.56;;;12.51;56.34
30614;BME280;17381;51.690;5.270;2023-02-10T13:59:49;103576.44;;;12.65;55.27
30614;BME280;17381;51.690;5.270;2023-02-10T14:06:08;103557.13;;;12.69;55.07
30614;BME280;17381;51.690;5.270;2023-02-10T14:09:01;103552.69;;;12.66;55.61
30614;BME280;17381;51.690;5.270;2023-02-10T14:11:53;103550.78;;;12.52;55.61
30614;BME280;17381;51.690;5.270;2023-02-10T14:14:28;103549.69;;;12.31;55.79
30614;BME280;17381;51.690;5.270;2023-02-10T14:17:29;103555.53;;;12.04;55.60
30614;BME280;17381;51.690;5.270;2023-02-10T14:20:24;103547.13;;;11.66;56.36
30614;BME280;17381;51.690;5.270;2023-02-10T14:23:27;103551.66;;;11.17;56.85
30614;BME280;17381;51.690;5.270;2023-02-10T14:26:23;103557.25;;;10.83;57.96
30614;BME280;17381;51.690;5.270;2023-02-10T14:29:30;103528.00;;;10.65;58.57
30614;BME280;17381;51.690;5.270;2023-02-10T14:32:24;103541.28;;;10.73;58.46
30614;BME280;17381;51.690;5.270;2023-02-10T14:35:38;103540.28;;;10.64;58.20
30614;BME280;17381;51.690;5.270;2023-02-10T14:38:32;103541.81;;;10.53;59.00
30614;BME280;17381;51.690;5.270;2023-02-10T14:41:31;103524.13;;;10.43;58.74
30614;BME280;17381;51.690;5.270;2023-02-10T14:44:51;103538.66;;;10.25;59.03
30614;BME280;17381;51.690;5.270;2023-02-10T14:47:38;103545.50;;;10.17;60.03
30614;BME280;17381;51.690;5.270;2023-02-10T14:53:27;103547.31;;;10.20;61.27
30614;BME280;17381;51.690;5.270;2023-02-10T14:56:30;103542.28;;;10.31;60.58
30614;BME280;17381;51.690;5.270;2023-02-10T14:59:45;103535.06;;;10.20;60.79
30614;BME280;17381;51.690;5.270;2023-02-10T15:02:44;103534.06;;;10.15;60.80
30614;BME280;17381;51.690;5.270;2023-02-10T15:05:56;103543.41;;;9.99;60.84
30614;BME280;17381;51.690;5.270;2023-02-10T15:12:02;103543.06;;;9.45;62.24
30614;BME280;17381;51.690;5.270;2023-02-10T15:18:30;103545.63;;;9.04;63.58
30614;BME280;17381;51.690;5.270;2023-02-10T15:24:37;103540.72;;;8.83;64.72
30614;BME280;17381;51.690;5.270;2023-02-10T15:27:21;103543.25;;;8.78;65.27
30614;BME280;17381;51.690;5.270;2023-02-10T15:30:40;103545.94;;;8.81;65.69
30614;BME280;17381;51.690;5.270;2023-02-10T15:36:49;103530.56;;;8.62;66.50
30614;BME280;17381;51.690;5.270;2023-02-10T15:39:35;103531.94;;;8.47;66.74
30614;BME280;17381;51.690;5.270;2023-02-10T15:42:54;103533.50;;;8.39;67.11
30614;BME280;17381;51.690;5.270;2023-02-10T15:45:27;103527.69;;;8.21;67.41
30614;BME280;17381;51.690;5.270;2023-02-10T15:48:06;103529.25;;;8.14;67.69
30614;BME280;17381;51.690;5.270;2023-02-10T15:50:42;103525.50;;;8.04;68.54
30614;BME280;17381;51.690;5.270;2023-02-10T15:53:20;103528.88;;;8.00;68.88
30614;BME280;17381;51.690;5.270;2023-02-10T15:55:53;103520.81;;;7.93;69.20
30614;BME280;17381;51.690;5.270;2023-02-10T15:58:44;103532.09;;;7.90;68.87
30614;BME280;17381;51.690;5.270;2023-02-10T16:01:46;103539.75;;;7.84;68.90